LESU

Details ICAO LESU (LEU)
Name Seo de Urgel
Region Spain
Timezone Europe/Madrid (UTC+1.0)
Plans Departing 21
Arriving 35
Stats Elevation 2,625 ft / 800 m (AMSL)
Location 42.341155° 1.410651°
Runways 1
Magnetic Variation 0.626° E
Sunrise 2017-12-17 07:19:14 UTC / 2017-12-17 08:19:14 Local
Sunset 2017-12-17 16:24:27 UTC / 2017-12-17 17:24:27 Local
Advertisement - Login to hide

Runways

ID Width Length Bearing (true) Bearing (mag) Surface Threshold Offset Overrun Length
03 98 ft / 30 m 4,396 ft / 1,340 m 30.50° 29.87° Asphalt 0 ft / 0 m 98 ft / 30 m
21 98 ft / 30 m 4,396 ft / 1,340 m 210.50° 209.87° Asphalt 0 ft / 0 m 102 ft / 31 m

Map

Weather


0- 5 10 15 20 25 30 35+ Temperature / ° C

Clouds and Precipitation
Forecast for 2017-12-17 12:00 UTC. Updated an hour ago

Ground ~20,000 ft ~40,000 ft Winds

METAR

LESU 171230Z VRB02KT 9999 BKN070 05/M09 Q1025

TAF

TAF LESU 170800Z 1709/1809 VRB04KT 9999 FEW050 TX07/1713Z TNM03/1807Z

Frequencies

Tower 122.20 MHz TWR
Warning: Do not use this data for real-world aviation or navigation. No guarantee of current accuracy is given.